Time;durP1;ratioP1;P1;durP2;ratioP2;P2;SDS_P1;SDS_P2;PMS_P1;PMS_P2;Temp;Humidity;BMP_temperature;BMP_pressure;BME280_temperature;BME280_humidity;BME280_pressure;Samples;Min_cycle;Max_cycle;Signal;HPM_P1;HPM_P2
2023/03/04 00:01:39;;;;;;;21.00;13.60;;;6.70;99.90;;;;;;5116810;28;20191;-67
2023/03/04 00:04:04;;;;;;;21.73;14.50;;;6.70;99.90;;;;;;5116489;28;20173;-67
2023/03/04 00:06:30;;;;;;;23.20;13.00;;;6.60;99.90;;;;;;5116549;28;20676;-68
2023/03/04 00:08:56;;;;;;;17.17;11.17;;;6.60;99.90;;;;;;5116529;28;20246;-68
2023/03/04 00:11:21;;;;;;;18.40;10.53;;;6.70;99.90;;;;;;5116571;28;20649;-68
2023/03/04 00:13:47;;;;;;;14.87;11.33;;;6.50;99.90;;;;;;5116328;28;20644;-68
2023/03/04 00:16:12;;;;;;;20.97;10.73;;;6.40;99.90;;;;;;5116480;28;20179;-68
2023/03/04 00:18:38;;;;;;;22.70;11.00;;;6.40;99.90;;;;;;5116152;28;20258;-68
2023/03/04 00:21:04;;;;;;;19.20;9.03;;;6.40;99.90;;;;;;5116100;28;20536;-69
2023/03/04 00:23:29;;;;;;;20.13;9.80;;;6.40;99.90;;;;;;5116135;28;20681;-69
2023/03/04 00:25:55;;;;;;;15.60;10.40;;;6.30;99.90;;;;;;5116400;28;20210;-68
2023/03/04 00:28:21;;;;;;;20.67;10.87;;;6.30;99.90;;;;;;5116376;28;20198;-68
2023/03/04 00:30:46;;;;;;;22.70;11.13;;;6.30;99.90;;;;;;5116212;28;20217;-68
2023/03/04 00:33:12;;;;;;;23.07;11.50;;;6.30;99.90;;;;;;5115902;28;20536;-68
2023/03/04 00:35:38;;;;;;;18.57;10.43;;;6.40;99.90;;;;;;5116019;28;20179;-68
2023/03/04 00:38:03;;;;;;;18.47;10.93;;;6.40;99.90;;;;;;5115952;28;20708;-67
2023/03/04 00:40:29;;;;;;;16.73;11.70;;;6.30;99.90;;;;;;5115919;28;20535;-68
2023/03/04 00:42:54;;;;;;;22.47;10.90;;;6.30;99.90;;;;;;5115941;28;20167;-68
2023/03/04 00:45:20;;;;;;;23.93;11.50;;;6.30;99.90;;;;;;5116043;28;20266;-68
2023/03/04 00:47:46;;;;;;;16.20;11.17;;;6.30;99.90;;;;;;5115702;28;20523;-67
2023/03/04 00:50:11;;;;;;;14.90;10.20;;;6.30;99.90;;;;;;5115811;28;20175;-67
2023/03/04 00:52:37;;;;;;;14.03;10.00;;;6.40;99.90;;;;;;5115685;28;20662;-68
2023/03/04 00:55:03;;;;;;;21.20;11.27;;;6.50;99.90;;;;;;5115667;28;20181;-68
2023/03/04 00:57:28;;;;;;;16.70;11.07;;;6.60;99.90;;;;;;5115954;28;20171;-67
2023/03/04 00:59:54;;;;;;;18.40;11.30;;;6.60;99.90;;;;;;5115611;28;20565;-67
2023/03/04 01:02:20;;;;;;;21.90;10.53;;;6.60;99.90;;;;;;5115316;28;20187;-68
2023/03/04 01:04:45;;;;;;;16.90;10.67;;;6.60;99.90;;;;;;5115650;28;20203;-67
2023/03/04 01:07:11;;;;;;;24.87;11.30;;;6.60;99.90;;;;;;5115637;28;20178;-67
2023/03/04 01:09:36;;;;;;;24.43;11.47;;;6.50;99.90;;;;;;5115434;28;20523;-66
2023/03/04 01:12:02;;;;;;;21.50;10.53;;;6.60;99.90;;;;;;5115517;28;20167;-67
2023/03/04 01:14:28;;;;;;;22.03;11.53;;;6.60;99.90;;;;;;5097248;28;20171;-67
2023/03/04 01:16:53;;;;;;;18.73;10.50;;;6.70;99.90;;;;;;5114979;28;20175;-67
2023/03/04 01:19:20;;;;;;;25.23;11.57;;;6.70;99.90;;;;;;5115357;28;20227;-68
2023/03/04 01:21:45;;;;;;;18.20;10.73;;;6.80;99.90;;;;;;5115135;28;20653;-69
2023/03/04 01:24:11;;;;;;;18.13;10.63;;;6.90;99.90;;;;;;5115358;28;20171;-68
2023/03/04 01:26:37;;;;;;;23.23;10.73;;;6.90;99.90;;;;;;5115081;28;20220;-67
2023/03/04 01:29:03;;;;;;;22.60;10.83;;;6.80;99.90;;;;;;5115208;28;20602;-67
2023/03/04 01:31:28;;;;;;;18.73;11.50;;;6.80;99.90;;;;;;5114678;28;20194;-67
2023/03/04 01:33:54;;;;;;;20.80;11.00;;;6.80;99.90;;;;;;5114770;28;20174;-67
2023/03/04 01:36:20;;;;;;;19.63;10.30;;;6.80;99.90;;;;;;5114954;28;20507;-67
2023/03/04 01:38:46;;;;;;;16.13;10.50;;;6.80;99.90;;;;;;5115088;28;20171;-67
2023/03/04 01:41:13;;;;;;;20.80;11.00;;;6.90;99.90;;;;;;5114895;28;20171;-68
2023/03/04 01:43:39;;;;;;;20.17;10.90;;;6.90;99.90;;;;;;5114923;28;20255;-68
2023/03/04 01:46:05;;;;;;;23.10;10.40;;;6.90;99.90;;;;;;5114400;28;20226;-68
2023/03/04 01:48:35;;;;;;;23.57;11.30;;;6.80;99.90;;;;;;5114813;28;20175;-68
2023/03/04 01:51:05;;;;;;;19.23;10.60;;;6.70;99.90;;;;;;5114594;28;20179;-68
2023/03/04 01:53:32;;;;;;;14.83;10.50;;;6.80;99.90;;;;;;5114792;28;20210;-67
2023/03/04 01:56:09;;;;;;;24.10;11.00;;;6.80;99.90;;;;;;5114636;28;20190;-67
2023/03/04 01:58:35;;;;;;;22.43;11.67;;;6.60;99.90;;;;;;5114298;28;20622;-67
2023/03/04 02:01:00;;;;;;;15.40;9.97;;;6.60;99.90;;;;;;5114422;28;20226;-67
2023/03/04 02:03:26;;;;;;;20.67;10.00;;;6.60;99.90;;;;;;5114260;28;20215;-66
2023/03/04 02:05:53;;;;;;;20.80;10.30;;;6.40;99.90;;;;;;5114390;28;20214;-67
2023/03/04 02:08:22;;;;;;;19.17;10.20;;;6.30;99.90;;;;;;5114337;28;20545;-67
2023/03/04 02:10:48;;;;;;;26.47;10.47;;;6.40;99.90;;;;;;5114203;28;20164;-67
2023/03/04 02:13:14;;;;;;;24.50;10.73;;;6.50;99.90;;;;;;5114029;28;20179;-68
2023/03/04 02:15:42;;;;;;;20.57;9.40;;;6.40;99.90;;;;;;5114231;28;20206;-67
2023/03/04 02:18:20;;;;;;;20.97;9.60;;;6.40;99.90;;;;;;5114004;28;20215;-67
2023/03/04 02:21:13;;;;;;;22.57;9.90;;;6.40;99.90;;;;;;5114106;28;20254;-68
2023/03/04 02:23:58;;;;;;;20.97;9.50;;;6.40;99.90;;;;;;5113893;28;20222;-68
2023/03/04 02:26:28;;;;;;;20.20;9.40;;;6.40;99.90;;;;;;5113918;28;20737;-68
2023/03/04 02:28:57;;;;;;;24.17;9.20;;;6.60;99.90;;;;;;5113822;28;20247;-67
2023/03/04 02:31:35;;;;;;;19.73;9.53;;;6.60;99.90;;;;;;5113856;28;20167;-68
2023/03/04 02:34:10;;;;;;;23.57;9.70;;;6.70;99.90;;;;;;5113984;28;20190;-67
2023/03/04 02:36:36;;;;;;;22.77;9.73;;;6.70;99.90;;;;;;5113824;28;20171;-66
2023/03/04 02:39:19;;;;;;;18.23;9.23;;;6.90;99.90;;;;;;5114065;28;20198;-66
2023/03/04 02:41:49;;;;;;;19.27;9.50;;;7.00;99.90;;;;;;5113869;28;20178;-67
2023/03/04 02:44:21;;;;;;;20.03;9.60;;;7.00;99.90;;;;;;5112576;28;20167;-68
2023/03/04 02:46:48;;;;;;;23.73;9.43;;;7.00;99.90;;;;;;5113849;28;20210;-67
2023/03/04 02:49:14;;;;;;;19.47;8.77;;;7.00;99.90;;;;;;5113835;28;20247;-67
2023/03/04 02:51:40;;;;;;;17.80;9.03;;;6.90;99.90;;;;;;5113728;28;20617;-68
2023/03/04 02:54:17;;;;;;;21.77;8.63;;;6.80;99.90;;;;;;5113737;28;20167;-66
2023/03/04 02:56:54;;;;;;;17.30;7.80;;;6.70;99.90;;;;;;5113232;28;20697;-68
2023/03/04 02:59:21;;;;;;;21.20;8.67;;;6.90;99.90;;;;;;5113710;28;20166;-67
2023/03/04 03:01:47;;;;;;;20.93;8.97;;;6.90;99.90;;;;;;5113462;28;20191;-66
2023/03/04 03:04:13;;;;;;;19.43;9.60;;;6.90;99.90;;;;;;5113621;28;20182;-66
2023/03/04 03:06:39;;;;;;;16.03;9.20;;;6.90;99.90;;;;;;5113605;28;20211;-67
2023/03/04 03:09:05;;;;;;;25.00;9.07;;;7.00;99.90;;;;;;5113565;28;20186;-67
2023/03/04 03:11:30;;;;;;;25.20;8.90;;;7.10;99.90;;;;;;5113214;28;20262;-67
2023/03/04 03:13:56;;;;;;;17.73;8.93;;;7.20;99.90;;;;;;5113737;28;20258;-67
2023/03/04 03:16:22;;;;;;;23.57;9.70;;;7.30;99.90;;;;;;5113246;28;20229;-67
2023/03/04 03:18:48;;;;;;;15.33;8.77;;;7.30;99.90;;;;;;5113646;28;20172;-67
2023/03/04 03:21:13;;;;;;;19.77;8.90;;;7.30;99.90;;;;;;5113487;28;20172;-67
2023/03/04 03:23:39;;;;;;;18.47;8.47;;;7.30;99.90;;;;;;5113224;28;20280;-66
2023/03/04 03:26:05;;;;;;;21.30;9.03;;;7.30;99.90;;;;;;5112988;28;20222;-67
2023/03/04 03:28:31;;;;;;;22.90;10.13;;;7.30;99.90;;;;;;5113358;28;20175;-65
2023/03/04 03:30:57;;;;;;;17.60;8.83;;;7.30;99.90;;;;;;5113229;28;20168;-66
2023/03/04 03:33:22;;;;;;;15.30;8.43;;;7.30;99.90;;;;;;5113252;28;20175;-67
2023/03/04 03:35:48;;;;;;;20.83;9.13;;;7.30;99.90;;;;;;5113337;28;20183;-66
2023/03/04 03:38:14;;;;;;;22.23;9.00;;;7.30;99.90;;;;;;5113110;28;20179;-67
2023/03/04 03:40:40;;;;;;;18.97;8.60;;;7.30;99.90;;;;;;5112815;28;20231;-67
2023/03/04 03:43:05;;;;;;;20.90;8.53;;;7.30;99.90;;;;;;5113080;28;20332;-67
2023/03/04 03:45:31;;;;;;;22.33;8.80;;;7.30;99.90;;;;;;5112829;28;20246;-68
2023/03/04 03:47:56;;;;;;;14.23;8.87;;;7.30;99.90;;;;;;5113367;28;20171;-67
2023/03/04 03:50:22;;;;;;;18.27;9.43;;;7.30;99.90;;;;;;5113199;28;20175;-67
2023/03/04 03:52:48;;;;;;;22.33;9.20;;;7.40;99.90;;;;;;5113098;28;20183;-67
2023/03/04 03:55:13;;;;;;;18.37;8.77;;;7.30;99.90;;;;;;5113202;28;20274;-67
2023/03/04 03:57:39;;;;;;;17.07;9.00;;;7.40;99.90;;;;;;5116766;28;20203;-67
2023/03/04 04:00:06;;;;;;;20.83;8.90;;;7.40;99.90;;;;;;5116540;28;20561;-67
2023/03/04 04:02:32;;;;;;;16.80;8.80;;;7.50;99.90;;;;;;5116618;28;20195;-66
2023/03/04 04:04:58;;;;;;;20.40;8.97;;;7.60;99.90;;;;;;5116769;28;20214;-66
2023/03/04 04:07:23;;;;;;;18.40;8.73;;;7.50;99.90;;;;;;5116814;28;20646;-67
2023/03/04 04:09:49;;;;;;;19.90;9.60;;;7.50;99.90;;;;;;5116183;28;20175;-67
2023/03/04 04:12:18;;;;;;;30.13;10.30;;;7.50;99.90;;;;;;5116671;28;20643;-67
2023/03/04 04:14:44;;;;;;;16.90;9.20;;;7.50;99.90;;;;;;5116323;28;20198;-67
2023/03/04 04:17:10;;;;;;;22.00;9.90;;;7.40;99.90;;;;;;5116609;28;20266;-67
2023/03/04 04:19:36;;;;;;;18.87;9.63;;;7.30;99.90;;;;;;5116178;28;20234;-67
2023/03/04 04:22:03;;;;;;;22.67;9.77;;;7.40;99.90;;;;;;5116449;28;20195;-67
2023/03/04 04:24:28;;;;;;;21.03;10.10;;;7.10;99.90;;;;;;5116016;28;20175;-67
2023/03/04 04:26:54;;;;;;;20.53;10.00;;;7.00;99.90;;;;;;5116353;28;20295;-67
2023/03/04 04:29:21;;;;;;;20.53;9.93;;;7.00;99.90;;;;;;5116154;28;20511;-67
2023/03/04 04:31:47;;;;;;;22.53;10.30;;;7.10;99.90;;;;;;5116295;28;20179;-67
2023/03/04 04:34:13;;;;;;;20.90;9.90;;;7.20;99.90;;;;;;5116010;28;20636;-67
2023/03/04 04:36:39;;;;;;;21.33;9.97;;;7.20;99.90;;;;;;5116003;28;20167;-66
2023/03/04 04:39:04;;;;;;;24.20;9.73;;;7.20;99.90;;;;;;5115649;28;20175;-67
2023/03/04 04:41:38;;;;;;;25.87;10.13;;;7.30;99.90;;;;;;5115856;28;20173;-68
2023/03/04 04:44:03;;;;;;;19.43;10.20;;;7.30;99.90;;;;;;5115720;28;20171;-67
2023/03/04 04:46:29;;;;;;;22.07;10.10;;;7.30;99.90;;;;;;5115964;28;20313;-67
2023/03/04 04:48:55;;;;;;;22.83;10.17;;;7.30;99.90;;;;;;5116058;28;20191;-67
2023/03/04 04:51:21;;;;;;;29.53;10.67;;;7.30;99.90;;;;;;5115924;28;20209;-67
2023/03/04 04:53:47;;;;;;;19.53;9.83;;;7.30;99.90;;;;;;5115442;28;20175;-67
2023/03/04 04:56:19;;;;;;;19.63;9.57;;;7.30;99.90;;;;;;5115477;28;20183;-67
2023/03/04 04:58:45;;;;;;;21.97;10.70;;;7.30;99.90;;;;;;5115335;28;20174;-66
2023/03/04 05:01:11;;;;;;;21.77;10.47;;;7.30;99.90;;;;;;5115562;28;20227;-67
2023/03/04 05:03:38;;;;;;;17.97;10.23;;;7.30;99.90;;;;;;5115589;28;20206;-67
2023/03/04 05:06:05;;;;;;;27.70;10.80;;;7.20;99.90;;;;;;5115282;28;20242;-67
2023/03/04 05:08:31;;;;;;;24.13;11.13;;;7.30;99.90;;;;;;5113790;28;20183;-68
2023/03/04 05:10:57;;;;;;;25.40;10.30;;;7.30;99.90;;;;;;5115273;28;20695;-67
2023/03/04 05:13:23;;;;;;;27.40;10.03;;;7.30;99.90;;;;;;5115304;28;20167;-66
2023/03/04 05:15:52;;;;;;;17.13;8.90;;;7.10;99.90;;;;;;5115006;28;20614;-67
2023/03/04 05:18:18;;;;;;;22.73;9.83;;;6.80;99.90;;;;;;5114871;28;20256;-67
2023/03/04 05:20:44;;;;;;;19.43;9.30;;;6.70;99.90;;;;;;5115132;28;20304;-67
2023/03/04 05:23:09;;;;;;;18.43;9.80;;;6.60;99.90;;;;;;5114648;28;20665;-67
2023/03/04 05:25:35;;;;;;;20.60;9.33;;;6.50;99.90;;;;;;5114856;28;20209;-67
2023/03/04 05:28:01;;;;;;;24.20;10.67;;;6.50;99.90;;;;;;5115068;28;20168;-67
2023/03/04 05:30:27;;;;;;;22.00;10.80;;;6.50;99.90;;;;;;5114737;28;20630;-67
2023/03/04 05:32:52;;;;;;;22.50;10.00;;;6.40;99.90;;;;;;5115084;28;20175;-67
2023/03/04 05:35:18;;;;;;;22.23;9.80;;;6.30;99.90;;;;;;5114874;28;20224;-67
2023/03/04 05:37:44;;;;;;;22.37;10.27;;;6.20;99.90;;;;;;5114767;28;20171;-67
2023/03/04 05:40:10;;;;;;;17.30;9.77;;;6.20;99.90;;;;;;5114680;28;20258;-67
2023/03/04 05:42:36;;;;;;;18.53;9.33;;;6.30;99.90;;;;;;5114847;28;20271;-67
2023/03/04 05:45:01;;;;;;;21.20;10.10;;;6.30;99.90;;;;;;5114389;28;20829;-68
2023/03/04 05:47:27;;;;;;;19.53;10.03;;;6.50;99.90;;;;;;5114541;28;20167;-67
2023/03/04 05:49:53;;;;;;;19.90;10.17;;;6.70;99.90;;;;;;5114351;28;20636;-66
2023/03/04 05:52:19;;;;;;;25.43;9.50;;;6.80;99.90;;;;;;5113797;28;20210;-67
2023/03/04 05:54:44;;;;;;;20.37;9.87;;;6.90;99.90;;;;;;5114167;28;20242;-67
2023/03/04 05:57:10;;;;;;;21.50;10.10;;;7.00;99.90;;;;;;5114249;28;20171;-67
2023/03/04 05:59:35;;;;;;;19.50;9.67;;;7.10;99.90;;;;;;5114127;28;20182;-67
2023/03/04 06:02:01;;;;;;;24.00;8.93;;;7.10;99.90;;;;;;5114200;28;20278;-67
2023/03/04 06:04:26;;;;;;;19.47;8.33;;;7.10;99.90;;;;;;5114386;28;20261;-67
2023/03/04 06:06:52;;;;;;;17.00;8.30;;;7.00;99.90;;;;;;5113960;28;20207;-67
2023/03/04 06:09:19;;;;;;;21.47;7.73;;;7.00;99.90;;;;;;5114054;28;20225;-68
2023/03/04 06:11:45;;;;;;;20.70;8.47;;;6.90;99.90;;;;;;5113791;28;20171;-67
2023/03/04 06:14:11;;;;;;;19.10;7.47;;;6.90;99.90;;;;;;5114079;28;20177;-67
2023/03/04 06:16:36;;;;;;;17.47;7.67;;;6.90;99.90;;;;;;5114021;28;20216;-67
2023/03/04 06:19:02;;;;;;;12.47;7.20;;;7.00;99.90;;;;;;5113952;28;20171;-66
2023/03/04 06:21:28;;;;;;;13.77;7.00;;;7.00;99.90;;;;;;5113392;28;20179;-68
2023/03/04 06:23:53;;;;;;;23.27;7.23;;;6.90;99.90;;;;;;5113732;28;20632;-66
2023/03/04 06:26:19;;;;;;;17.63;6.97;;;7.00;99.90;;;;;;5114084;28;20211;-67
2023/03/04 06:28:45;;;;;;;17.83;6.93;;;7.00;99.90;;;;;;5113672;28;20167;-67
2023/03/04 06:31:11;;;;;;;20.70;6.67;;;7.00;99.90;;;;;;5113683;28;20243;-67
2023/03/04 06:33:37;;;;;;;13.07;6.77;;;7.00;99.90;;;;;;5113628;28;20660;-67
2023/03/04 06:36:03;;;;;;;13.27;6.80;;;7.00;99.90;;;;;;5113666;28;20171;-67
2023/03/04 06:38:29;;;;;;;16.40;6.47;;;7.10;99.90;;;;;;5113869;28;20186;-67
2023/03/04 06:40:54;;;;;;;31.03;7.40;;;7.10;99.90;;;;;;5113048;28;20167;-67
2023/03/04 06:43:20;;;;;;;11.73;5.73;;;7.10;99.90;;;;;;5113316;28;20175;-68
2023/03/04 06:45:46;;;;;;;16.00;6.00;;;7.20;99.90;;;;;;5113426;28;20225;-68
2023/03/04 06:48:12;;;;;;;16.30;5.80;;;7.30;99.90;;;;;;5113718;28;20626;-68
2023/03/04 06:50:40;;;;;;;14.60;6.33;;;7.40;99.90;;;;;;5112801;28;20175;-67
2023/03/04 06:53:06;;;;;;;17.50;7.17;;;7.50;99.90;;;;;;5113410;28;20167;-67
2023/03/04 06:55:32;;;;;;;17.03;7.03;;;7.40;99.90;;;;;;5113422;28;20171;-67
2023/03/04 06:57:57;;;;;;;17.77;6.73;;;7.50;99.90;;;;;;5113378;28;20274;-67
2023/03/04 07:00:23;;;;;;;19.77;7.43;;;7.50;99.90;;;;;;5094939;28;20288;-68
2023/03/04 07:02:49;;;;;;;15.67;6.47;;;7.50;99.90;;;;;;5113461;28;20171;-68
2023/03/04 07:05:15;;;;;;;17.13;6.37;;;7.60;99.90;;;;;;5112603;28;20226;-67
2023/03/04 07:07:40;;;;;;;17.93;6.13;;;7.60;99.90;;;;;;5113389;28;20622;-67
2023/03/04 07:10:08;;;;;;;18.13;7.00;;;7.60;99.90;;;;;;5094766;28;20214;-67
2023/03/04 07:12:34;;;;;;;15.63;7.27;;;7.60;99.90;;;;;;5112964;28;20540;-67
2023/03/04 07:15:00;;;;;;;16.87;7.97;;;7.60;99.90;;;;;;5113256;28;20178;-67
2023/03/04 07:17:25;;;;;;;18.47;7.57;;;7.50;99.90;;;;;;5113129;28;20170;-68
2023/03/04 07:19:51;;;;;;;17.80;7.83;;;7.50;99.90;;;;;;5112850;28;20175;-67
2023/03/04 07:22:16;;;;;;;21.47;8.13;;;7.60;99.90;;;;;;5112670;28;20210;-67
2023/03/04 07:24:42;;;;;;;18.80;9.40;;;7.60;99.90;;;;;;5113139;28;20197;-68
2023/03/04 07:27:08;;;;;;;18.77;10.20;;;7.70;99.90;;;;;;5113172;28;20199;-68
2023/03/04 07:29:33;;;;;;;18.27;10.73;;;7.50;99.90;;;;;;5113004;28;20182;-68
2023/03/04 07:31:59;;;;;;;24.37;11.33;;;7.60;99.90;;;;;;5116692;28;20174;-67
2023/03/04 07:34:25;;;;;;;21.57;11.80;;;7.60;99.90;;;;;;5116831;28;20224;-67
2023/03/04 07:36:50;;;;;;;19.37;11.23;;;7.60;99.90;;;;;;5116906;28;20786;-68
2023/03/04 07:39:16;;;;;;;19.70;10.97;;;7.60;99.90;;;;;;5116920;28;20524;-67
2023/03/04 07:41:41;;;;;;;20.93;11.10;;;7.50;99.90;;;;;;5116890;28;20533;-66
2023/03/04 07:44:09;;;;;;;27.23;10.97;;;7.50;99.90;;;;;;5117034;28;20171;-66
2023/03/04 07:46:35;;;;;;;19.87;10.80;;;7.60;99.90;;;;;;5116471;28;20297;-68
2023/03/04 07:49:01;;;;;;;15.77;9.03;;;7.60;99.90;;;;;;5116588;28;20199;-67
2023/03/04 07:51:27;;;;;;;23.07;10.20;;;7.60;99.90;;;;;;5116669;28;20187;-68
2023/03/04 07:53:56;;;;;;;16.70;8.50;;;7.60;99.90;;;;;;5116663;28;20167;-68
2023/03/04 07:56:25;;;;;;;16.33;8.43;;;7.50;99.90;;;;;;5116360;28;20655;-66
2023/03/04 07:58:52;;;;;;;18.80;8.73;;;7.50;99.90;;;;;;5116359;28;20246;-68
2023/03/04 08:01:27;;;;;;;12.87;7.60;;;7.50;99.90;;;;;;5116534;28;20209;-67
2023/03/04 08:03:53;;;;;;;10.47;6.83;;;7.70;99.90;;;;;;5116635;28;20175;-68
2023/03/04 08:06:20;;;;;;;12.83;6.97;;;7.70;99.90;;;;;;5116368;28;20215;-67
2023/03/04 08:08:47;;;;;;;12.67;7.53;;;7.60;99.90;;;;;;5116416;28;20172;-67
2023/03/04 08:11:19;;;;;;;12.67;6.40;;;7.70;99.90;;;;;;5116383;28;20179;-67
2023/03/04 08:13:44;;;;;;;12.40;6.20;;;7.70;99.90;;;;;;5116679;28;20175;-66
2023/03/04 08:16:16;;;;;;;9.87;5.37;;;7.70;99.90;;;;;;5115821;28;20177;-66
2023/03/04 08:18:44;;;;;;;11.03;5.83;;;7.70;99.90;;;;;;5116372;28;20247;-68
2023/03/04 08:21:11;;;;;;;12.87;5.40;;;7.80;99.90;;;;;;5116340;28;20258;-67
2023/03/04 08:23:37;;;;;;;12.33;5.20;;;7.80;99.90;;;;;;5116057;28;20306;-66
2023/03/04 08:26:12;;;;;;;11.13;6.13;;;7.80;99.90;;;;;;5116193;28;20346;-67
2023/03/04 08:28:38;;;;;;;11.77;6.33;;;7.90;99.90;;;;;;5115878;28;20283;-67
2023/03/04 08:31:03;;;;;;;14.77;6.63;;;8.00;99.90;;;;;;5115806;28;20199;-67
2023/03/04 08:33:30;;;;;;;13.63;6.73;;;8.00;99.90;;;;;;5115660;28;20236;-68
2023/03/04 08:35:57;;;;;;;12.40;7.17;;;8.00;99.90;;;;;;5116060;28;20505;-68
2023/03/04 08:38:22;;;;;;;12.47;7.50;;;8.00;99.90;;;;;;5116166;28;20178;-67
2023/03/04 08:40:54;;;;;;;16.17;8.87;;;8.10;99.90;;;;;;5115556;28;20183;-68
2023/03/04 08:43:20;;;;;;;17.90;7.70;;;8.00;99.90;;;;;;5114841;28;20518;-68
2023/03/04 08:45:46;;;;;;;10.93;7.43;;;7.90;99.90;;;;;;5115433;28;20211;-67
2023/03/04 08:48:12;;;;;;;16.53;8.30;;;7.90;99.90;;;;;;5115393;28;20204;-66
2023/03/04 08:50:37;;;;;;;18.17;8.30;;;7.90;99.90;;;;;;5115568;28;20171;-68
2023/03/04 08:53:03;;;;;;;16.00;7.53;;;7.90;99.90;;;;;;5115814;28;20164;-68
2023/03/04 08:55:28;;;;;;;13.03;6.97;;;7.90;99.90;;;;;;5115033;28;20607;-67
2023/03/04 08:57:54;;;;;;;13.27;6.73;;;7.90;99.90;;;;;;5114805;28;20572;-67
2023/03/04 09:00:21;;;;;;;10.87;6.87;;;7.90;99.90;;;;;;5115324;28;20175;-66
2023/03/04 09:02:46;;;;;;;14.73;7.47;;;8.10;99.90;;;;;;5115469;28;20293;-66
2023/03/04 09:05:12;;;;;;;14.47;6.43;;;8.20;99.90;;;;;;5114739;28;20290;-66
2023/03/04 09:07:37;;;;;;;12.00;6.27;;;8.20;99.90;;;;;;5115334;28;20171;-67
2023/03/04 09:10:04;;;;;;;13.03;6.50;;;8.00;99.90;;;;;;5115170;28;20174;-65
2023/03/04 09:12:30;;;;;;;11.77;6.67;;;8.10;99.90;;;;;;5115314;28;20168;-68
2023/03/04 09:14:55;;;;;;;11.80;6.70;;;8.10;99.90;;;;;;5114690;28;20512;-67
2023/03/04 09:17:21;;;;;;;10.83;6.53;;;8.00;99.90;;;;;;5115340;28;20164;-68
2023/03/04 09:19:46;;;;;;;13.83;6.00;;;7.90;99.90;;;;;;5114435;28;20638;-67
2023/03/04 09:22:13;;;;;;;14.33;5.87;;;7.90;99.90;;;;;;5114331;28;20258;-67
2023/03/04 09:24:39;;;;;;;16.50;5.70;;;8.00;99.90;;;;;;5115000;28;20183;-68
2023/03/04 09:27:04;;;;;;;12.17;5.70;;;8.10;99.90;;;;;;5115089;28;20595;-67
2023/03/04 09:29:30;;;;;;;18.00;6.20;;;8.20;99.90;;;;;;5114325;28;20167;-67
2023/03/04 09:31:55;;;;;;;12.83;5.73;;;8.20;99.90;;;;;;5114934;28;20211;-67
2023/03/04 09:34:21;;;;;;;13.10;5.10;;;8.20;99.90;;;;;;5114501;28;20635;-66
2023/03/04 09:36:46;;;;;;;17.13;5.27;;;8.20;99.90;;;;;;5114588;28;20686;-67
2023/03/04 09:39:12;;;;;;;11.60;5.40;;;8.10;99.90;;;;;;5114802;28;20167;-66
2023/03/04 09:41:55;;;;;;;14.67;5.63;;;8.30;99.90;;;;;;5114681;28;20171;-67
2023/03/04 09:44:28;;;;;;;16.37;5.20;;;8.40;99.90;;;;;;5113696;28;20179;-68
2023/03/04 09:47:06;;;;;;;12.33;6.13;;;8.30;99.90;;;;;;5114483;28;20218;-68
2023/03/04 09:49:32;;;;;;;17.53;7.53;;;8.30;99.90;;;;;;5113766;28;20270;-67
2023/03/04 09:52:02;;;;;;;14.90;7.37;;;8.30;99.90;;;;;;5113948;28;20171;-68
2023/03/04 09:55:02;;;;;;;16.33;7.70;;;8.20;99.90;;;;;;5114021;28;20246;-66
2023/03/04 09:57:40;;;;;;;14.00;6.53;;;8.20;99.90;;;;;;5113587;28;20634;-69
2023/03/04 10:00:18;;;;;;;14.03;6.57;;;8.20;99.90;;;;;;5114093;28;20178;-66
2023/03/04 10:03:11;;;;;;;13.97;6.03;;;8.20;99.90;;;;;;5114419;28;20171;-68
2023/03/04 10:05:51;;;;;;;17.77;6.53;;;8.40;99.90;;;;;;5113435;28;20206;-67
2023/03/04 10:08:44;;;;;;;12.33;6.33;;;8.50;99.90;;;;;;5114016;28;20163;-67
2023/03/04 10:11:37;;;;;;;9.00;5.80;;;8.60;99.90;;;;;;5114360;28;20193;-67
2023/03/04 10:14:20;;;;;;;11.37;5.40;;;8.80;99.90;;;;;;5114373;28;20258;-68
2023/03/04 10:16:52;;;;;;;16.10;5.77;;;8.90;99.90;;;;;;5113848;28;20171;-67
2023/03/04 10:19:31;;;;;;;12.70;5.40;;;9.00;99.90;;;;;;5113158;28;20745;-67
2023/03/04 10:21:56;;;;;;;14.80;5.97;;;9.00;99.90;;;;;;5113360;28;20160;-68
2023/03/04 10:24:27;;;;;;;12.53;5.90;;;9.00;99.90;;;;;;5114143;28;20191;-68
2023/03/04 10:27:03;;;;;;;17.10;6.23;;;9.00;99.90;;;;;;5113565;28;20219;-68
2023/03/04 10:29:31;;;;;;;16.17;6.03;;;8.90;99.90;;;;;;5113197;28;20242;-68
2023/03/04 10:31:57;;;;;;;16.90;5.57;;;8.90;99.90;;;;;;5113532;28;20660;-68
2023/03/04 10:34:23;;;;;;;12.67;5.40;;;8.80;99.90;;;;;;5113627;28;20172;-68
2023/03/04 10:36:54;;;;;;;18.13;6.27;;;8.90;99.90;;;;;;5113283;28;20631;-68
2023/03/04 10:39:44;;;;;;;16.47;6.40;;;9.10;99.90;;;;;;5113649;28;20634;-68
2023/03/04 10:42:15;;;;;;;12.37;7.07;;;9.30;99.90;;;;;;5113039;28;20163;-68
2023/03/04 10:45:02;;;;;;;11.57;7.00;;;9.40;99.90;;;;;;5113399;28;20167;-67
2023/03/04 10:47:31;;;;;;;11.10;6.23;;;9.40;99.90;;;;;;5112536;28;20187;-68
2023/03/04 10:50:03;;;;;;;11.50;6.00;;;9.70;99.90;;;;;;5113248;28;20262;-68
2023/03/04 10:52:37;;;;;;;13.33;5.70;;;10.00;99.90;;;;;;5112475;28;20224;-68
2023/03/04 10:55:13;;;;;;;9.83;6.03;;;10.30;99.90;;;;;;5112474;28;20175;-68
2023/03/04 10:57:41;;;;;;;8.73;4.87;;;10.50;99.90;;;;;;5113441;28;20178;-69
2023/03/04 11:00:16;;;;;;;11.00;5.27;;;10.30;99.90;;;;;;5112933;28;20244;-67
2023/03/04 11:02:42;;;;;;;13.77;5.53;;;10.30;99.90;;;;;;5112943;28;20571;-68
2023/03/04 11:05:13;;;;;;;9.43;5.77;;;10.40;99.90;;;;;;5111719;28;20248;-69
2023/03/04 11:07:45;;;;;;;12.10;5.30;;;10.30;99.90;;;;;;5113378;28;20214;-69
2023/03/04 11:10:20;;;;;;;10.27;5.50;;;10.40;99.90;;;;;;5112669;28;20639;-69
2023/03/04 11:12:50;;;;;;;9.07;5.47;;;10.60;99.90;;;;;;5112345;28;20179;-69
2023/03/04 11:15:26;;;;;;;9.27;5.30;;;10.50;99.90;;;;;;5113141;28;20167;-69
2023/03/04 11:18:11;;;;;;;10.23;5.57;;;10.50;99.90;;;;;;5112903;28;20163;-68
2023/03/04 11:20:41;;;;;;;10.37;5.77;;;10.70;99.90;;;;;;5112789;28;20623;-69
2023/03/04 11:23:17;;;;;;;7.87;5.47;;;10.70;99.90;;;;;;5112443;28;20252;-69
2023/03/04 11:25:51;;;;;;;11.53;6.23;;;10.60;99.90;;;;;;5112374;28;20207;-69
2023/03/04 11:28:42;;;;;;;14.90;5.60;;;10.40;99.90;;;;;;5113248;28;20171;-69
2023/03/04 11:32:00;;;;;;;11.37;5.30;;;10.40;99.90;;;;;;5112633;28;20171;-68
2023/03/04 11:34:48;;;;;;;12.13;5.33;;;10.30;99.90;;;;;;5108648;28;20175;-69
2023/03/04 11:37:46;;;;;;;9.47;5.30;;;10.00;99.90;;;;;;5113013;28;20168;-69
2023/03/04 11:40:28;;;;;;;10.47;5.20;;;9.90;99.90;;;;;;5112563;28;20199;-69
2023/03/04 11:43:06;;;;;;;13.20;5.40;;;9.80;99.90;;;;;;5111999;28;20661;-68
2023/03/04 11:46:04;;;;;;;12.87;5.70;;;9.80;99.90;;;;;;5112925;28;20229;-68
2023/03/04 11:49:01;;;;;;;14.20;5.00;;;9.80;99.90;;;;;;5112429;28;20270;-68
2023/03/04 11:51:58;;;;;;;9.17;5.03;;;9.80;99.90;;;;;;5112973;28;20163;-69
2023/03/04 11:54:41;;;;;;;12.83;6.00;;;10.00;99.90;;;;;;5112609;28;20187;-68
2023/03/04 11:57:34;;;;;;;10.80;5.70;;;10.10;99.90;;;;;;5111983;28;20186;-68
2023/03/04 12:00:20;;;;;;;10.20;5.40;;;10.10;99.90;;;;;;5112837;28;20251;-68
2023/03/04 12:03:08;;;;;;;12.17;5.40;;;9.90;99.90;;;;;;5112477;28;20259;-69
2023/03/04 12:05:48;;;;;;;14.30;5.20;;;10.10;99.90;;;;;;5112359;28;20674;-68
2023/03/04 12:08:58;;;;;;;16.73;6.20;;;10.20;99.90;;;;;;5111980;28;20275;-69
2023/03/04 12:11:31;;;;;;;10.93;5.30;;;10.30;99.90;;;;;;5032453;28;20175;-68
2023/03/04 12:14:20;;;;;;;8.07;4.37;;;10.30;99.90;;;;;;5112686;28;20171;-68
2023/03/04 12:17:13;;;;;;;9.67;5.13;;;10.30;99.90;;;;;;5114091;28;20174;-69
2023/03/04 12:19:51;;;;;;;9.80;5.10;;;10.30;99.90;;;;;;5115670;28;20171;-68
2023/03/04 12:22:35;;;;;;;12.17;5.00;;;10.30;99.90;;;;;;5097423;28;20607;-68
2023/03/04 12:25:01;;;;;;;13.40;4.83;;;10.30;99.90;;;;;;5116011;28;20240;-68
2023/03/04 12:27:52;;;;;;;8.10;4.60;;;10.10;99.90;;;;;;5115860;28;20627;-68
2023/03/04 12:30:36;;;;;;;12.97;4.63;;;10.00;99.90;;;;;;5116482;28;20246;-67
2023/03/04 12:33:31;;;;;;;5.80;4.70;;;10.10;99.90;;;;;;5116268;28;20167;-68
2023/03/04 12:36:27;;;;;;;10.33;4.93;;;10.40;99.90;;;;;;5115023;28;20167;-69
2023/03/04 12:39:03;;;;;;;13.53;5.13;;;10.80;99.90;;;;;;5114812;28;20171;-70
2023/03/04 12:41:40;;;;;;;6.60;3.90;;;11.10;99.90;;;;;;5115589;28;20189;-70
2023/03/04 12:44:09;;;;;;;8.10;4.40;;;11.20;99.90;;;;;;5115081;28;20622;-70
2023/03/04 12:46:46;;;;;;;9.87;3.80;;;11.30;99.90;;;;;;5115371;28;20228;-69
2023/03/04 12:49:32;;;;;;;8.70;3.43;;;11.30;99.90;;;;;;5115309;28;20523;-69
2023/03/04 12:52:00;;;;;;;5.47;2.70;;;11.30;99.90;;;;;;5115040;28;20175;-69
2023/03/04 12:54:50;;;;;;;7.43;3.13;;;11.20;99.90;;;;;;5115044;28;20179;-68
2023/03/04 12:57:23;;;;;;;8.83;3.07;;;11.00;99.90;;;;;;5114978;28;20174;-69